createdAt,value
2016-08-03T00:00:29.895Z,22.08
2016-08-03T00:01:19.122Z,22.08
2016-08-03T00:02:18.554Z,22.08
2016-08-03T00:03:19.445Z,22.08
2016-08-03T00:04:21.832Z,22.07
2016-08-03T00:05:25.372Z,22.08
2016-08-03T00:06:19.728Z,22.07
2016-08-03T00:07:16.154Z,22.07
2016-08-03T00:08:24.930Z,22.07
2016-08-03T00:09:34.136Z,22.07
2016-08-03T00:10:21.951Z,22.08
2016-08-03T00:11:13.714Z,22.07
2016-08-03T00:12:14.811Z,22.10
2016-08-03T00:13:21.920Z,22.07
2016-08-03T00:14:21.218Z,22.07
2016-08-03T00:15:33.833Z,22.07
2016-08-03T00:16:29.719Z,22.07
2016-08-03T00:17:26.210Z,22.07
2016-08-03T00:18:27.306Z,22.14
2016-08-03T00:19:35.582Z,22.07
2016-08-03T00:20:15.182Z,22.08
2016-08-03T00:21:30.894Z,22.07
2016-08-03T00:22:33.127Z,22.07
2016-08-03T00:23:19.388Z,22.07
2016-08-03T00:24:21.664Z,22.08
2016-08-03T00:25:13.353Z,22.06
2016-08-03T00:26:25.672Z,22.05
2016-08-03T00:27:36.352Z,22.06
2016-08-03T00:28:27.148Z,22.06
2016-08-03T00:29:14.956Z,22.05
2016-08-03T00:30:35.759Z,22.05
2016-08-03T00:31:12.197Z,22.05
2016-08-03T00:32:12.115Z,22.05
2016-08-03T00:33:33.262Z,22.60
2016-08-03T00:34:34.519Z,22.65
2016-08-03T00:35:15.205Z,22.68
2016-08-03T00:36:15.133Z,22.69
2016-08-03T00:37:27.828Z,22.16
2016-08-03T00:38:35.280Z,22.11
2016-08-03T00:39:15.275Z,22.09
2016-08-03T00:40:14.260Z,22.09
2016-08-03T00:41:30.841Z,22.07
2016-08-03T00:42:32.750Z,22.06
2016-08-03T00:43:25.014Z,22.06
2016-08-03T00:44:23.791Z,22.60
2016-08-03T00:45:21.935Z,22.64
2016-08-03T00:46:28.020Z,22.33
2016-08-03T00:47:19.801Z,22.15
2016-08-03T00:48:29.882Z,22.10
2016-08-03T00:49:13.958Z,22.08
2016-08-03T00:50:20.352Z,22.07
2016-08-03T00:51:34.795Z,22.06
2016-08-03T00:52:32.262Z,22.06
2016-08-03T00:53:24.850Z,22.08
2016-08-03T00:54:33.734Z,22.04
2016-08-03T00:55:12.825Z,22.08
2016-08-03T00:56:29.403Z,22.05
2016-08-03T00:57:13.448Z,22.06
2016-08-03T00:58:29.073Z,22.06
2016-08-03T00:59:14.824Z,22.03
2016-08-03T01:00:23.911Z,22.05
2016-08-03T01:01:31.589Z,22.05
2016-08-03T01:02:30.930Z,22.05
2016-08-03T01:03:27.911Z,22.05
2016-08-03T01:04:26.811Z,22.05
2016-08-03T01:05:25.992Z,22.05
2016-08-03T01:06:28.003Z,22.05
2016-08-03T01:07:16.282Z,22.05
2016-08-03T01:08:18.009Z,22.05
2016-08-03T01:09:28.315Z,22.05
2016-08-03T01:10:33.545Z,22.05
2016-08-03T01:11:27.066Z,22.05
2016-08-03T01:12:27.995Z,22.05
2016-08-03T01:13:32.265Z,22.09
2016-08-03T01:14:35.871Z,22.05
2016-08-03T01:15:32.016Z,22.05
2016-08-03T01:16:14.083Z,22.07
2016-08-03T01:17:34.832Z,22.05
2016-08-03T01:18:33.318Z,22.08
2016-08-03T01:19:34.571Z,22.04
2016-08-03T01:20:34.630Z,22.04
2016-08-03T01:21:31.717Z,22.04
2016-08-03T01:22:34.112Z,22.04
2016-08-03T01:23:19.232Z,22.03
2016-08-03T01:24:11.148Z,22.04
2016-08-03T01:25:20.697Z,22.05
2016-08-03T01:26:26.885Z,22.03
2016-08-03T01:27:11.141Z,22.57
2016-08-03T01:28:27.896Z,22.27
2016-08-03T01:29:33.614Z,22.11
2016-08-03T01:30:25.701Z,22.08
2016-08-03T01:31:18.477Z,22.05
2016-08-03T01:32:21.279Z,22.04
2016-08-03T01:33:32.669Z,22.04
2016-08-03T01:34:16.285Z,22.06
2016-08-03T01:35:19.444Z,22.03
2016-08-03T01:36:26.872Z,22.03
2016-08-03T01:37:30.577Z,22.05
2016-08-03T01:38:30.837Z,22.04
2016-08-03T01:39:11.153Z,22.04
2016-08-03T01:40:14.408Z,22.04
2016-08-03T01:41:18.093Z,22.02
2016-08-03T01:42:30.348Z,22.04
2016-08-03T01:43:12.275Z,22.04
2016-08-03T01:44:15.339Z,22.03
2016-08-03T01:45:13.628Z,22.03
2016-08-03T01:46:24.848Z,22.04
2016-08-03T01:47:17.106Z,22.12
2016-08-03T01:48:22.410Z,22.57
2016-08-03T01:49:27.851Z,22.64
2016-08-03T01:50:15.063Z,22.65
2016-08-03T01:51:14.832Z,22.67
2016-08-03T01:52:34.562Z,22.68
2016-08-03T01:53:26.799Z,22.68
2016-08-03T01:54:11.445Z,22.69
2016-08-03T01:55:31.681Z,22.69
2016-08-03T01:56:12.560Z,22.16
2016-08-03T01:57:21.425Z,22.10
2016-08-03T01:58:32.316Z,22.07
2016-08-03T01:59:30.674Z,22.06
2016-08-03T02:00:27.326Z,22.05
2016-08-03T02:01:33.641Z,22.05
2016-08-03T02:02:16.358Z,22.05
2016-08-03T02:03:20.236Z,22.04
2016-08-03T02:04:28.316Z,22.03
2016-08-03T02:05:29.234Z,22.03
2016-08-03T02:06:21.317Z,22.03
2016-08-03T02:07:16.849Z,22.03
2016-08-03T02:08:14.145Z,22.03
2016-08-03T02:09:26.548Z,22.03
2016-08-03T02:10:26.884Z,22.01
2016-08-03T02:11:13.541Z,22.02
2016-08-03T02:12:36.215Z,22.02
2016-08-03T02:13:30.044Z,22.02
2016-08-03T02:15:16.455Z,22.09
2016-08-03T02:16:16.990Z,22.02
2016-08-03T02:17:31.235Z,22.02
2016-08-03T02:18:18.606Z,22.03
2016-08-03T02:19:13.474Z,22.08
2016-08-03T02:20:14.885Z,22.03
2016-08-03T02:21:19.545Z,22.03
2016-08-03T02:22:30.459Z,22.03
2016-08-03T02:23:20.206Z,22.05
2016-08-03T02:24:12.780Z,22.02
2016-08-03T02:25:14.872Z,22.02
2016-08-03T02:26:31.360Z,22.02
2016-08-03T02:27:30.970Z,22.00
2016-08-03T02:28:35.897Z,22.01
2016-08-03T02:29:28.968Z,22.01
2016-08-03T02:30:33.428Z,22.01
2016-08-03T02:31:34.585Z,22.01
2016-08-03T02:32:34.462Z,22.01
2016-08-03T02:33:19.602Z,22.01
2016-08-03T02:34:21.046Z,22.02
2016-08-03T02:35:14.922Z,22.02
2016-08-03T02:36:13.534Z,22.02
2016-08-03T02:37:35.773Z,22.01
2016-08-03T02:38:30.768Z,22.03
2016-08-03T02:39:32.166Z,22.03
2016-08-03T02:40:14.811Z,22.02
2016-08-03T02:41:32.936Z,22.02
2016-08-03T02:42:22.146Z,22.02
2016-08-03T02:43:13.479Z,22.01
2016-08-03T02:44:26.905Z,22.01
2016-08-03T02:45:34.149Z,22.01
2016-08-03T02:46:30.628Z,22.01
2016-08-03T02:47:28.151Z,22.01
2016-08-03T02:48:31.278Z,22.02
2016-08-03T02:49:24.294Z,22.00
2016-08-03T02:50:12.370Z,22.01
2016-08-03T02:51:31.865Z,22.01
2016-08-03T02:52:26.975Z,22.01
2016-08-03T02:53:25.801Z,22.01
2016-08-03T02:54:34.282Z,22.00
2016-08-03T02:55:21.301Z,22.01
2016-08-03T02:56:26.546Z,22.07
2016-08-03T02:57:38.441Z,22.01
2016-08-03T02:58:29.548Z,22.00
2016-08-03T02:59:29.725Z,22.00
2016-08-03T03:00:26.050Z,22.01
2016-08-03T03:01:11.678Z,21.99
2016-08-03T03:02:31.877Z,22.54
2016-08-03T03:03:12.325Z,22.60
2016-08-03T03:04:33.459Z,22.62
2016-08-03T03:05:32.023Z,22.64
2016-08-03T03:06:11.898Z,22.65
2016-08-03T03:07:33.752Z,22.33
2016-08-03T03:08:28.025Z,22.11
2016-08-03T03:09:22.591Z,22.06
2016-08-03T03:10:12.519Z,22.03
2016-08-03T03:11:21.825Z,22.57
2016-08-03T03:12:20.949Z,22.61
2016-08-03T03:13:33.104Z,22.64
2016-08-03T03:15:32.135Z,22.65
2016-08-03T03:16:29.057Z,22.65
2016-08-03T03:17:31.997Z,22.12
2016-08-03T03:18:34.141Z,22.06
2016-08-03T03:19:30.234Z,22.03
2016-08-03T03:20:37.243Z,22.02
2016-08-03T03:21:16.038Z,22.02
2016-08-03T03:22:36.421Z,22.01
2016-08-03T03:23:32.071Z,22.02
2016-08-03T03:24:34.893Z,22.01
2016-08-03T03:25:18.650Z,21.99
2016-08-03T03:26:38.766Z,22.00
2016-08-03T03:27:33.217Z,22.00
2016-08-03T03:28:22.927Z,22.00
2016-08-03T03:29:31.044Z,21.99
2016-08-03T03:30:24.850Z,22.00
2016-08-03T03:31:34.067Z,22.00
2016-08-03T03:32:31.893Z,22.05
2016-08-03T03:33:20.182Z,22.00
2016-08-03T03:34:31.784Z,21.99
2016-08-03T03:35:30.987Z,22.00
2016-08-03T03:36:32.027Z,21.99
2016-08-03T03:37:33.821Z,22.00
2016-08-03T03:38:35.488Z,21.99
2016-08-03T03:39:25.195Z,21.99
2016-08-03T03:40:25.549Z,21.99
2016-08-03T03:41:13.205Z,21.99
2016-08-03T03:42:25.271Z,22.00
2016-08-03T03:43:35.828Z,21.98
2016-08-03T03:45:35.075Z,21.98
2016-08-03T03:46:30.605Z,22.00
2016-08-03T03:47:30.192Z,21.98
2016-08-03T03:48:20.340Z,21.99
2016-08-03T03:49:31.151Z,21.99
2016-08-03T03:50:25.857Z,21.99
2016-08-03T03:51:13.609Z,21.98
2016-08-03T03:52:30.194Z,21.99
2016-08-03T03:53:36.105Z,21.99
2016-08-03T03:54:25.623Z,21.99
2016-08-03T03:55:32.751Z,21.99
2016-08-03T03:56:13.744Z,21.99
2016-08-03T03:57:26.173Z,21.99
2016-08-03T03:58:29.392Z,21.99
2016-08-03T03:59:14.291Z,22.00
2016-08-03T04:00:28.044Z,21.99
2016-08-03T04:01:27.314Z,21.98
2016-08-03T04:02:22.426Z,22.04
2016-08-03T04:03:29.348Z,21.98
2016-08-03T04:04:27.793Z,21.98
2016-08-03T04:05:29.230Z,21.99
2016-08-03T04:06:20.264Z,21.98
2016-08-03T04:07:27.092Z,21.99
2016-08-03T04:08:18.919Z,21.98
2016-08-03T04:09:34.550Z,21.98
2016-08-03T04:10:27.897Z,21.99
2016-08-03T04:11:23.748Z,21.99
2016-08-03T04:12:28.726Z,21.98
2016-08-03T04:13:31.597Z,21.98
2016-08-03T04:14:28.107Z,21.99
2016-08-03T04:15:25.550Z,22.00
2016-08-03T04:16:23.004Z,21.99
2016-08-03T04:17:32.578Z,21.99
2016-08-03T04:18:24.195Z,21.99
2016-08-03T04:19:14.421Z,21.98
2016-08-03T04:20:30.245Z,22.03
2016-08-03T04:21:25.824Z,21.99
2016-08-03T04:22:23.623Z,21.98
2016-08-03T04:23:28.155Z,21.98
2016-08-03T04:24:17.029Z,21.99
2016-08-03T04:25:16.391Z,22.05
2016-08-03T04:26:28.769Z,21.99
2016-08-03T04:27:22.044Z,21.97
2016-08-03T04:28:15.976Z,21.98
2016-08-03T04:30:33.191Z,21.98
2016-08-03T04:31:22.961Z,22.52
2016-08-03T04:32:27.456Z,22.57
2016-08-03T04:33:21.996Z,22.61
2016-08-03T04:34:33.132Z,22.62
2016-08-03T04:35:17.217Z,22.64
2016-08-03T04:36:34.120Z,22.63
2016-08-03T04:37:29.137Z,22.63
2016-08-03T04:38:15.972Z,22.11
2016-08-03T04:39:28.140Z,22.05
2016-08-03T04:40:32.317Z,22.02
2016-08-03T04:41:15.585Z,22.01
2016-08-03T04:42:20.740Z,22.01
2016-08-03T04:43:27.240Z,22.01
2016-08-03T04:45:19.180Z,22.00
2016-08-03T04:46:32.247Z,21.99
2016-08-03T04:47:33.807Z,22.00
2016-08-03T04:48:31.920Z,21.99
2016-08-03T04:49:23.435Z,22.00
2016-08-03T04:50:21.209Z,21.99
2016-08-03T04:51:20.590Z,22.00
2016-08-03T04:52:30.734Z,22.01
2016-08-03T04:53:36.156Z,22.00
2016-08-03T04:54:26.796Z,22.03
2016-08-03T04:55:26.602Z,22.01
2016-08-03T04:56:25.020Z,22.01
2016-08-03T04:57:14.006Z,22.00
2016-08-03T04:58:17.299Z,22.00
2016-08-03T04:59:16.182Z,21.99
2016-08-03T05:00:12.261Z,21.99
2016-08-03T05:01:27.320Z,21.99
2016-08-03T05:02:31.404Z,22.00
2016-08-03T05:03:26.298Z,22.00
2016-08-03T05:04:16.648Z,22.00
2016-08-03T05:05:36.667Z,22.00
2016-08-03T05:06:33.671Z,22.00
2016-08-03T05:07:25.538Z,22.00
2016-08-03T05:08:14.170Z,22.01
2016-08-03T05:09:21.231Z,22.01
2016-08-03T05:10:34.462Z,22.01
2016-08-03T05:11:23.696Z,22.00
2016-08-03T05:12:26.386Z,22.01
2016-08-03T05:13:20.887Z,22.01
2016-08-03T05:14:20.854Z,22.01
2016-08-03T05:15:33.183Z,22.01
2016-08-03T05:16:33.270Z,22.01
2016-08-03T05:17:13.997Z,22.01
2016-08-03T05:18:12.990Z,22.01
2016-08-03T05:19:14.363Z,22.01
2016-08-03T05:20:27.866Z,22.04
2016-08-03T05:21:34.186Z,22.01
2016-08-03T05:22:15.334Z,22.02
2016-08-03T05:23:13.870Z,22.07
2016-08-03T05:24:18.799Z,22.02
2016-08-03T05:25:25.249Z,22.02
2016-08-03T05:26:20.852Z,22.07
2016-08-03T05:27:27.905Z,22.02
2016-08-03T05:28:32.044Z,22.02
2016-08-03T05:29:19.438Z,22.02
2016-08-03T05:30:20.288Z,22.03
2016-08-03T05:31:20.424Z,22.03
2016-08-03T05:32:19.264Z,22.02
2016-08-03T05:33:32.052Z,22.02
2016-08-03T05:34:29.101Z,22.02
2016-08-03T05:35:14.752Z,22.03
2016-08-03T05:36:27.988Z,22.03
2016-08-03T05:37:14.675Z,22.06
2016-08-03T05:38:22.814Z,22.02
2016-08-03T05:39:21.826Z,22.05
2016-08-03T05:40:26.289Z,22.03
2016-08-03T05:41:12.665Z,22.03
2016-08-03T05:42:21.534Z,22.03
2016-08-03T05:43:20.262Z,22.04
2016-08-03T05:44:29.863Z,22.04
2016-08-03T05:45:23.875Z,22.04
2016-08-03T05:46:33.051Z,22.04
2016-08-03T05:47:15.997Z,22.04
2016-08-03T05:48:17.121Z,22.03
2016-08-03T05:49:22.268Z,22.03
2016-08-03T05:50:21.122Z,22.03
2016-08-03T05:51:27.022Z,22.58
2016-08-03T05:52:22.598Z,22.65
2016-08-03T05:53:34.175Z,22.67
2016-08-03T05:54:34.858Z,22.69
2016-08-03T05:55:20.845Z,22.70
2016-08-03T05:56:31.390Z,22.71
2016-08-03T05:57:31.239Z,22.71
2016-08-03T05:58:23.393Z,22.71
2016-08-03T05:59:22.794Z,22.71
2016-08-03T06:00:32.369Z,22.20
2016-08-03T06:01:36.712Z,22.13
2016-08-03T06:02:13.720Z,22.13
2016-08-03T06:03:17.350Z,22.10
2016-08-03T06:04:26.823Z,22.12
2016-08-03T06:05:33.143Z,22.08
2016-08-03T06:06:27.430Z,22.12
2016-08-03T06:07:27.134Z,22.11
2016-08-03T06:08:25.929Z,22.09
2016-08-03T06:09:29.268Z,22.09
2016-08-03T06:10:25.243Z,22.09
2016-08-03T06:11:20.912Z,22.16
2016-08-03T06:12:34.049Z,22.09
2016-08-03T06:13:12.900Z,22.10
2016-08-03T06:14:33.499Z,22.10
2016-08-03T06:15:26.803Z,22.18
2016-08-03T06:16:29.520Z,22.66
2016-08-03T06:17:26.916Z,22.72
2016-08-03T06:18:16.707Z,22.76
2016-08-03T06:19:26.988Z,22.77
2016-08-03T06:20:28.629Z,22.47
2016-08-03T06:21:13.418Z,22.25
2016-08-03T06:22:13.678Z,22.21
2016-08-03T06:23:17.732Z,22.20
2016-08-03T06:24:25.828Z,22.18
2016-08-03T06:25:32.634Z,22.18
2016-08-03T06:26:24.810Z,22.20
2016-08-03T06:27:33.369Z,22.36
2016-08-03T06:28:33.176Z,22.22
2016-08-03T06:29:27.995Z,22.18
2016-08-03T06:30:33.322Z,22.18
2016-08-03T06:31:16.586Z,22.17
2016-08-03T06:32:19.273Z,22.17
2016-08-03T06:33:20.503Z,22.17
2016-08-03T06:34:17.968Z,22.17
2016-08-03T06:35:33.119Z,22.17
2016-08-03T06:36:32.092Z,22.18
2016-08-03T06:37:13.028Z,22.17
2016-08-03T06:38:30.699Z,22.18
2016-08-03T06:39:30.779Z,22.18
2016-08-03T06:40:28.456Z,22.18
2016-08-03T06:41:26.348Z,22.21
2016-08-03T06:42:29.219Z,22.25
2016-08-03T06:43:26.362Z,22.19
2016-08-03T06:44:28.457Z,22.20
2016-08-03T06:45:32.212Z,22.21
2016-08-03T06:46:28.208Z,22.21
2016-08-03T06:47:19.173Z,22.21
2016-08-03T06:48:19.981Z,22.21
2016-08-03T06:49:16.350Z,22.20
2016-08-03T06:50:25.881Z,22.20
2016-08-03T06:51:12.784Z,22.19
2016-08-03T06:52:31.829Z,22.20
2016-08-03T06:53:29.910Z,22.19
2016-08-03T06:54:22.923Z,22.26
2016-08-03T06:55:34.592Z,22.19
2016-08-03T06:56:33.855Z,22.20
2016-08-03T06:57:27.305Z,22.20
2016-08-03T06:58:23.025Z,22.20
2016-08-03T06:59:13.675Z,22.19
2016-08-03T07:00:33.154Z,22.19
2016-08-03T07:01:31.393Z,22.19
2016-08-03T07:02:13.501Z,22.21
2016-08-03T07:03:33.243Z,22.18
2016-08-03T07:04:34.121Z,22.19
2016-08-03T07:05:34.542Z,22.20
2016-08-03T07:06:30.863Z,22.19
2016-08-03T07:07:27.810Z,22.19
2016-08-03T07:08:17.375Z,22.18
2016-08-03T07:09:30.522Z,22.19
2016-08-03T07:10:19.792Z,22.18
2016-08-03T07:11:27.203Z,22.18
2016-08-03T07:12:15.249Z,22.18
2016-08-03T07:13:22.227Z,22.18
2016-08-03T07:14:29.706Z,22.72
2016-08-03T07:15:36.382Z,22.77
2016-08-03T07:16:32.298Z,22.42
2016-08-03T07:17:14.665Z,22.28
2016-08-03T07:18:34.083Z,22.21
2016-08-03T07:19:12.820Z,22.20
2016-08-03T07:20:23.271Z,22.19
2016-08-03T07:21:15.087Z,22.19
2016-08-03T07:22:21.947Z,22.19
2016-08-03T07:23:22.059Z,22.20
2016-08-03T07:24:35.090Z,22.19
2016-08-03T07:25:28.079Z,22.18
2016-08-03T07:26:27.940Z,22.18
2016-08-03T07:27:17.626Z,22.18
2016-08-03T07:28:33.801Z,22.18
2016-08-03T07:29:27.518Z,22.18
2016-08-03T07:30:19.862Z,22.18
2016-08-03T07:31:30.047Z,22.18
2016-08-03T07:32:13.619Z,22.19
2016-08-03T07:33:26.321Z,22.18
2016-08-03T07:34:23.576Z,22.18
2016-08-03T07:35:18.127Z,22.19
2016-08-03T07:36:14.345Z,22.18
2016-08-03T07:37:27.085Z,22.18
2016-08-03T07:38:27.794Z,22.19
2016-08-03T07:39:26.370Z,22.18
2016-08-03T07:40:34.364Z,22.19
2016-08-03T07:41:22.020Z,22.18
2016-08-03T07:42:12.326Z,22.19
2016-08-03T07:43:12.877Z,22.19
2016-08-03T07:44:14.984Z,22.19
2016-08-03T07:45:21.321Z,22.20
2016-08-03T07:46:26.313Z,22.19
2016-08-03T07:47:37.493Z,22.19
2016-08-03T07:48:19.576Z,22.19
2016-08-03T07:49:32.408Z,22.19
2016-08-03T07:50:16.997Z,22.19
2016-08-03T07:51:33.784Z,22.19
2016-08-03T07:52:33.694Z,22.19
2016-08-03T07:53:20.766Z,22.20
2016-08-03T07:54:19.964Z,22.19
2016-08-03T07:55:26.660Z,22.20
2016-08-03T07:56:23.672Z,22.20
2016-08-03T07:57:15.320Z,22.20
2016-08-03T07:58:16.553Z,22.20
2016-08-03T07:59:20.520Z,22.19
2016-08-03T08:00:20.749Z,22.19
2016-08-03T08:01:15.373Z,22.20
2016-08-03T08:02:22.084Z,22.21
2016-08-03T08:03:14.558Z,22.19
2016-08-03T08:04:30.936Z,22.74
2016-08-03T08:05:23.448Z,22.49
2016-08-03T08:06:32.032Z,22.29
2016-08-03T08:07:32.482Z,22.25
2016-08-03T08:08:13.436Z,22.23
2016-08-03T08:09:21.642Z,22.22
2016-08-03T08:10:32.512Z,22.22
2016-08-03T08:11:25.645Z,22.22
2016-08-03T08:12:12.782Z,22.22
2016-08-03T08:13:28.541Z,22.22
2016-08-03T08:14:19.855Z,22.22
2016-08-03T08:15:12.260Z,22.22
2016-08-03T08:16:15.232Z,22.26
2016-08-03T08:17:27.949Z,22.22
2016-08-03T08:18:12.925Z,22.22
2016-08-03T08:19:32.381Z,22.22
2016-08-03T08:20:12.884Z,22.22
2016-08-03T08:21:33.661Z,22.23
2016-08-03T08:22:39.787Z,22.23
2016-08-03T08:23:23.815Z,22.22
2016-08-03T08:24:33.186Z,22.23
2016-08-03T08:25:17.525Z,22.23
2016-08-03T08:26:21.710Z,22.23
2016-08-03T08:27:34.422Z,22.23
2016-08-03T08:28:30.282Z,22.23
2016-08-03T08:29:26.056Z,22.23
2016-08-03T08:30:19.395Z,22.24
2016-08-03T08:31:26.853Z,22.28
2016-08-03T08:32:33.793Z,22.24
2016-08-03T08:33:30.910Z,22.24
2016-08-03T08:34:34.133Z,22.25
2016-08-03T08:35:32.930Z,22.23
2016-08-03T08:36:16.892Z,22.24
2016-08-03T08:37:22.406Z,22.24
2016-08-03T08:38:21.322Z,22.24
2016-08-03T08:39:26.773Z,22.32
2016-08-03T08:40:34.597Z,22.23
2016-08-03T08:41:32.327Z,22.27
2016-08-03T08:42:24.920Z,22.24
2016-08-03T08:43:21.057Z,22.24
2016-08-03T08:44:27.438Z,22.24
2016-08-03T08:45:20.868Z,22.24
2016-08-03T08:46:33.830Z,22.25
2016-08-03T08:47:22.937Z,22.24
2016-08-03T08:48:34.245Z,22.28
2016-08-03T08:49:31.176Z,22.25
2016-08-03T08:50:32.714Z,22.26
2016-08-03T08:51:12.462Z,22.28
2016-08-03T08:52:26.750Z,22.26
2016-08-03T08:53:31.698Z,22.27
2016-08-03T08:54:14.168Z,22.25
2016-08-03T08:55:31.448Z,22.25
2016-08-03T08:56:27.408Z,22.28
2016-08-03T08:57:30.581Z,22.26
2016-08-03T08:58:12.146Z,22.27
2016-08-03T08:59:13.773Z,22.26
2016-08-03T09:00:26.043Z,22.27
2016-08-03T09:01:31.489Z,22.29
2016-08-03T09:02:27.649Z,22.26
2016-08-03T09:03:19.740Z,22.26
2016-08-03T09:04:15.770Z,22.27
2016-08-03T09:05:23.945Z,22.28
2016-08-03T09:06:31.470Z,22.27
2016-08-03T09:07:27.510Z,22.27
2016-08-03T09:08:28.425Z,22.27
2016-08-03T09:09:33.286Z,22.27
2016-08-03T09:10:12.608Z,22.32
2016-08-03T09:11:12.590Z,22.31
2016-08-03T09:12:31.263Z,22.82
2016-08-03T09:13:31.296Z,22.53
2016-08-03T09:14:13.848Z,22.40
2016-08-03T09:15:25.941Z,22.33
2016-08-03T09:16:34.767Z,22.31
2016-08-03T09:17:26.693Z,22.30
2016-08-03T09:18:25.897Z,22.29
2016-08-03T09:19:13.877Z,22.30
2016-08-03T09:20:12.528Z,22.30
2016-08-03T09:21:32.641Z,22.29
2016-08-03T09:22:31.353Z,22.29
2016-08-03T09:23:22.998Z,22.29
2016-08-03T09:24:23.281Z,22.29
2016-08-03T09:25:16.002Z,22.29
2016-08-03T09:26:19.845Z,22.30
2016-08-03T09:27:31.138Z,22.30
2016-08-03T09:28:13.821Z,22.30
2016-08-03T09:29:16.722Z,22.29
2016-08-03T09:30:23.443Z,22.30
2016-08-03T09:31:21.468Z,22.30
2016-08-03T09:32:34.856Z,22.29
2016-08-03T09:33:32.956Z,22.35
2016-08-03T09:34:12.958Z,22.30
2016-08-03T09:35:17.913Z,22.30
2016-08-03T09:36:13.857Z,22.31
2016-08-03T09:37:15.092Z,22.31
2016-08-03T09:38:26.493Z,22.31
2016-08-03T09:39:28.954Z,22.35
2016-08-03T09:40:34.247Z,22.31
2016-08-03T09:41:16.263Z,22.31
2016-08-03T09:42:35.746Z,22.31
2016-08-03T09:43:28.515Z,22.34
2016-08-03T09:44:35.342Z,22.31
2016-08-03T09:45:21.236Z,22.36
2016-08-03T09:46:33.102Z,22.31
2016-08-03T09:47:29.113Z,22.32
2016-08-03T09:48:26.890Z,22.33
2016-08-03T09:49:27.669Z,22.34
2016-08-03T09:50:21.676Z,22.33
2016-08-03T09:51:21.231Z,22.32
2016-08-03T09:52:32.917Z,22.33
2016-08-03T09:53:34.204Z,22.33
2016-08-03T09:54:28.963Z,22.33
2016-08-03T09:55:14.921Z,22.32
2016-08-03T09:56:25.688Z,22.33
2016-08-03T09:57:26.310Z,22.33
2016-08-03T09:58:26.268Z,22.33
2016-08-03T09:59:28.138Z,22.36
2016-08-03T10:00:23.429Z,22.33
2016-08-03T10:01:27.237Z,22.33
2016-08-03T10:02:12.203Z,22.33
2016-08-03T10:03:20.799Z,22.34
2016-08-03T10:04:12.143Z,22.33
2016-08-03T10:05:26.160Z,22.34
2016-08-03T10:06:27.804Z,22.33
2016-08-03T10:07:27.312Z,22.32
2016-08-03T10:08:30.171Z,22.36
2016-08-03T10:09:38.159Z,22.34
2016-08-03T10:10:19.990Z,22.34
2016-08-03T10:11:18.919Z,22.34
2016-08-03T10:12:14.618Z,22.34
2016-08-03T10:13:41.827Z,22.34
2016-08-03T10:14:36.614Z,22.33
2016-08-03T10:15:35.120Z,22.37
2016-08-03T10:16:30.399Z,22.87
2016-08-03T10:17:27.188Z,22.92
2016-08-03T10:18:31.921Z,22.96
2016-08-03T10:19:26.789Z,22.47
2016-08-03T10:20:19.098Z,22.40
2016-08-03T10:21:34.494Z,22.37
2016-08-03T10:22:27.259Z,22.37
2016-08-03T10:23:26.282Z,22.36
2016-08-03T10:24:31.505Z,22.36
2016-08-03T10:25:16.442Z,22.36
2016-08-03T10:26:32.722Z,22.36
2016-08-03T10:27:31.877Z,22.36
2016-08-03T10:28:26.837Z,22.36
2016-08-03T10:29:32.444Z,22.36
2016-08-03T10:30:32.873Z,22.36
2016-08-03T10:31:12.154Z,22.35
2016-08-03T10:32:33.365Z,22.37
2016-08-03T10:33:32.642Z,22.36
2016-08-03T10:34:33.092Z,22.36
2016-08-03T10:35:31.833Z,22.37
2016-08-03T10:36:27.471Z,22.35
2016-08-03T10:37:33.098Z,22.34
2016-08-03T10:38:29.274Z,22.35
2016-08-03T10:39:21.011Z,22.35
2016-08-03T10:40:31.403Z,22.35
2016-08-03T10:41:27.539Z,22.38
2016-08-03T10:42:32.320Z,22.36
2016-08-03T10:43:13.877Z,22.35
2016-08-03T10:44:23.070Z,22.35
2016-08-03T10:45:24.071Z,22.35
2016-08-03T10:47:35.095Z,22.36
2016-08-03T10:48:21.634Z,22.36
2016-08-03T10:49:10.759Z,22.35
2016-08-03T10:50:13.011Z,22.89
2016-08-03T10:51:25.899Z,22.93
2016-08-03T10:52:28.902Z,22.96
2016-08-03T10:53:13.769Z,22.66
2016-08-03T10:54:32.444Z,22.46
2016-08-03T10:55:30.131Z,22.42
2016-08-03T10:56:13.015Z,22.40
2016-08-03T10:57:12.746Z,22.39
2016-08-03T10:58:33.087Z,22.39
2016-08-03T10:59:28.534Z,22.38
2016-08-03T11:00:20.517Z,22.38
2016-08-03T11:01:35.629Z,22.38
2016-08-03T11:02:29.653Z,22.38
2016-08-03T11:03:26.940Z,22.37
2016-08-03T11:04:13.412Z,22.40
2016-08-03T11:05:35.828Z,22.38
2016-08-03T11:06:28.789Z,22.37
2016-08-03T11:07:33.830Z,22.38
2016-08-03T11:08:14.358Z,22.38
2016-08-03T11:09:21.994Z,22.37
2016-08-03T11:10:32.723Z,22.38
2016-08-03T11:11:31.944Z,22.39
2016-08-03T11:12:23.496Z,22.39
2016-08-03T11:13:27.360Z,22.38
2016-08-03T11:14:27.289Z,22.38
2016-08-03T11:15:31.141Z,22.92
2016-08-03T11:16:13.381Z,22.97
2016-08-03T11:17:22.472Z,22.88
2016-08-03T11:18:33.467Z,22.46
2016-08-03T11:19:28.448Z,22.42
2016-08-03T11:20:14.001Z,22.43
2016-08-03T11:21:27.866Z,22.40
2016-08-03T11:22:27.063Z,22.39
2016-08-03T11:23:20.826Z,22.37
2016-08-03T11:24:33.714Z,22.38
2016-08-03T11:25:22.333Z,22.38
2016-08-03T11:26:27.534Z,22.37
2016-08-03T11:27:27.682Z,22.43
2016-08-03T11:28:27.940Z,22.42
2016-08-03T11:29:32.999Z,22.38
2016-08-03T11:30:25.852Z,22.38
2016-08-03T11:31:34.867Z,22.38
2016-08-03T11:32:13.260Z,22.41
2016-08-03T11:33:28.765Z,22.39
2016-08-03T11:34:27.369Z,22.39
2016-08-03T11:35:30.656Z,22.39
2016-08-03T11:36:25.990Z,22.40
2016-08-03T11:37:14.681Z,22.40
2016-08-03T11:38:32.902Z,22.46
2016-08-03T11:39:20.353Z,22.41
2016-08-03T11:40:33.614Z,22.41
2016-08-03T11:41:27.518Z,22.41
2016-08-03T11:42:22.558Z,22.41
2016-08-03T11:43:27.567Z,22.41
2016-08-03T11:44:33.217Z,22.42
2016-08-03T11:45:26.450Z,22.41
2016-08-03T11:47:27.729Z,22.41
2016-08-03T11:48:13.244Z,22.41
2016-08-03T11:49:14.751Z,22.42
2016-08-03T11:50:12.963Z,22.44
2016-08-03T11:51:28.123Z,22.41
2016-08-03T11:52:22.220Z,22.41
2016-08-03T11:53:28.104Z,22.41
2016-08-03T11:54:22.839Z,22.41
2016-08-03T11:55:15.169Z,22.42
2016-08-03T11:56:34.014Z,22.59
2016-08-03T11:57:25.640Z,22.46
2016-08-03T11:58:29.670Z,22.44
2016-08-03T11:59:16.647Z,22.43
2016-08-03T12:00:28.576Z,22.43
2016-08-03T12:01:33.440Z,22.42
2016-08-03T12:02:18.162Z,22.42
2016-08-03T12:03:16.613Z,22.43
2016-08-03T12:04:28.354Z,22.42
2016-08-03T12:05:26.655Z,22.42
2016-08-03T12:06:13.507Z,22.42
2016-08-03T12:07:30.769Z,22.43
2016-08-03T12:08:32.727Z,22.42
2016-08-03T12:09:13.691Z,22.43
2016-08-03T12:10:17.575Z,22.42
2016-08-03T12:11:20.996Z,22.42
2016-08-03T12:12:40.765Z,22.42
2016-08-03T12:13:30.811Z,22.42
2016-08-03T12:14:26.422Z,22.43
2016-08-03T12:15:12.154Z,22.43
2016-08-03T12:17:27.250Z,22.43
2016-08-03T12:18:33.540Z,22.50
2016-08-03T12:19:27.819Z,22.43
2016-08-03T12:20:35.038Z,22.43
2016-08-03T12:21:32.723Z,22.44
2016-08-03T12:22:32.799Z,22.47
2016-08-03T12:23:33.534Z,22.45
2016-08-03T12:24:32.896Z,22.43
2016-08-03T12:25:13.338Z,22.44
2016-08-03T12:26:33.498Z,22.44
2016-08-03T12:27:21.510Z,22.43
2016-08-03T12:28:21.248Z,22.44
2016-08-03T12:29:19.916Z,22.44
2016-08-03T12:30:14.540Z,22.44
2016-08-03T12:31:32.703Z,22.44
2016-08-03T12:32:15.927Z,22.44
2016-08-03T12:33:20.271Z,22.44
2016-08-03T12:34:17.643Z,22.44
2016-08-03T12:35:30.938Z,22.45
2016-08-03T12:36:21.430Z,22.44
2016-08-03T12:37:34.948Z,22.44
2016-08-03T12:38:12.606Z,22.44
2016-08-03T12:39:14.427Z,22.45
2016-08-03T12:40:11.733Z,22.44
2016-08-03T12:41:32.955Z,22.45
2016-08-03T12:42:18.682Z,22.44
2016-08-03T12:43:26.013Z,22.43
2016-08-03T12:44:25.128Z,22.44
2016-08-03T12:45:22.715Z,22.98
2016-08-03T12:46:14.747Z,22.51
2016-08-03T12:47:17.614Z,22.48
2016-08-03T12:48:36.897Z,22.45
2016-08-03T12:49:30.162Z,22.46
2016-08-03T12:50:28.733Z,22.46
2016-08-03T12:51:32.135Z,22.47
2016-08-03T12:52:22.914Z,22.49
2016-08-03T12:53:22.782Z,22.46
2016-08-03T12:54:11.572Z,22.46
2016-08-03T12:55:17.607Z,22.47
2016-08-03T12:56:17.078Z,22.47
2016-08-03T12:57:19.406Z,22.47
2016-08-03T12:58:26.229Z,22.46
2016-08-03T12:59:18.060Z,22.46
2016-08-03T13:00:27.684Z,22.51